sensor_id;sensor_type;location;lat;lon;timestamp;P1;durP1;ratioP1;P2;durP2;ratioP2
66163;SDS011;52962;51.088;3.096;2023-04-25T00:02:01;1.02;;;0.90;;
66163;SDS011;52962;51.088;3.096;2023-04-25T00:04:30;3.63;;;1.33;;
66163;SDS011;52962;51.088;3.096;2023-04-25T00:07:00;6.82;;;1.92;;
66163;SDS011;52962;51.088;3.096;2023-04-25T00:11:56;2.75;;;1.00;;
66163;SDS011;52962;51.088;3.096;2023-04-25T00:14:26;5.25;;;1.33;;
66163;SDS011;52962;51.088;3.096;2023-04-25T00:16:55;5.93;;;1.13;;
66163;SDS011;52962;51.088;3.096;2023-04-25T00:19:23;5.20;;;1.27;;
66163;SDS011;52962;51.088;3.096;2023-04-25T00:21:51;4.07;;;1.08;;
66163;SDS011;52962;51.088;3.096;2023-04-25T00:24:19;5.57;;;1.58;;
66163;SDS011;52962;51.088;3.096;2023-04-25T00:26:47;1.20;;;0.85;;
66163;SDS011;52962;51.088;3.096;2023-04-25T00:29:15;2.15;;;1.23;;
66163;SDS011;52962;51.088;3.096;2023-04-25T00:31:45;6.22;;;1.55;;
66163;SDS011;52962;51.088;3.096;2023-04-25T00:34:13;2.92;;;1.27;;
66163;SDS011;52962;51.088;3.096;2023-04-25T00:36:41;5.72;;;0.98;;
66163;SDS011;52962;51.088;3.096;2023-04-25T00:39:09;2.70;;;1.38;;
66163;SDS011;52962;51.088;3.096;2023-04-25T00:41:39;7.35;;;1.50;;
66163;SDS011;52962;51.088;3.096;2023-04-25T00:44:08;1.90;;;0.98;;
66163;SDS011;52962;51.088;3.096;2023-04-25T00:46:38;7.03;;;1.55;;
66163;SDS011;52962;51.088;3.096;2023-04-25T00:49:07;2.53;;;1.40;;
66163;SDS011;52962;51.088;3.096;2023-04-25T00:51:42;5.82;;;1.73;;
66163;SDS011;52962;51.088;3.096;2023-04-25T00:54:12;3.83;;;1.38;;
66163;SDS011;52962;51.088;3.096;2023-04-25T00:56:41;4.93;;;1.70;;
66163;SDS011;52962;51.088;3.096;2023-04-25T00:59:09;3.65;;;1.10;;
66163;SDS011;52962;51.088;3.096;2023-04-25T01:01:38;6.90;;;1.30;;
66163;SDS011;52962;51.088;3.096;2023-04-25T01:04:08;1.48;;;1.00;;
66163;SDS011;52962;51.088;3.096;2023-04-25T01:06:36;2.08;;;0.88;;
66163;SDS011;52962;51.088;3.096;2023-04-25T01:09:05;3.08;;;1.52;;
66163;SDS011;52962;51.088;3.096;2023-04-25T01:16:29;4.97;;;1.33;;
66163;SDS011;52962;51.088;3.096;2023-04-25T01:18:58;4.18;;;0.98;;
66163;SDS011;52962;51.088;3.096;2023-04-25T01:21:28;2.08;;;1.30;;
66163;SDS011;52962;51.088;3.096;2023-04-25T01:23:57;3.17;;;1.30;;
66163;SDS011;52962;51.088;3.096;2023-04-25T01:26:25;1.67;;;0.90;;
66163;SDS011;52962;51.088;3.096;2023-04-25T01:28:54;2.10;;;1.17;;
66163;SDS011;52962;51.088;3.096;2023-04-25T01:31:22;2.33;;;1.00;;
66163;SDS011;52962;51.088;3.096;2023-04-25T01:33:51;5.50;;;1.25;;
66163;SDS011;52962;51.088;3.096;2023-04-25T01:38:49;7.70;;;1.10;;
66163;SDS011;52962;51.088;3.096;2023-04-25T01:41:21;3.25;;;1.30;;
66163;SDS011;52962;51.088;3.096;2023-04-25T01:43:49;2.83;;;1.10;;
66163;SDS011;52962;51.088;3.096;2023-04-25T01:46:18;6.03;;;1.10;;
66163;SDS011;52962;51.088;3.096;2023-04-25T01:51:15;1.33;;;0.65;;
66163;SDS011;52962;51.088;3.096;2023-04-25T01:53:43;2.42;;;0.88;;
66163;SDS011;52962;51.088;3.096;2023-04-25T01:56:14;5.20;;;0.95;;
66163;SDS011;52962;51.088;3.096;2023-04-25T01:58:43;1.45;;;0.98;;
66163;SDS011;52962;51.088;3.096;2023-04-25T02:01:30;2.85;;;1.00;;
66163;SDS011;52962;51.088;3.096;2023-04-25T02:04:15;2.00;;;1.05;;
66163;SDS011;52962;51.088;3.096;2023-04-25T02:06:44;2.85;;;1.00;;
66163;SDS011;52962;51.088;3.096;2023-04-25T02:09:13;4.93;;;1.02;;
66163;SDS011;52962;51.088;3.096;2023-04-25T02:11:48;4.05;;;1.15;;
66163;SDS011;52962;51.088;3.096;2023-04-25T02:14:39;2.20;;;0.77;;
66163;SDS011;52962;51.088;3.096;2023-04-25T02:17:25;3.95;;;1.15;;
66163;SDS011;52962;51.088;3.096;2023-04-25T02:19:53;2.03;;;1.17;;
66163;SDS011;52962;51.088;3.096;2023-04-25T02:22:22;3.75;;;0.93;;
66163;SDS011;52962;51.088;3.096;2023-04-25T02:24:50;3.47;;;1.15;;
66163;SDS011;52962;51.088;3.096;2023-04-25T02:27:21;2.33;;;1.00;;
66163;SDS011;52962;51.088;3.096;2023-04-25T02:29:49;3.72;;;1.48;;
66163;SDS011;52962;51.088;3.096;2023-04-25T02:32:17;2.25;;;1.30;;
66163;SDS011;52962;51.088;3.096;2023-04-25T02:34:46;2.13;;;1.08;;
66163;SDS011;52962;51.088;3.096;2023-04-25T02:37:14;3.08;;;1.00;;
66163;SDS011;52962;51.088;3.096;2023-04-25T02:39:44;2.22;;;1.25;;
66163;SDS011;52962;51.088;3.096;2023-04-25T02:42:12;5.32;;;0.82;;
66163;SDS011;52962;51.088;3.096;2023-04-25T02:44:42;2.13;;;0.88;;
66163;SDS011;52962;51.088;3.096;2023-04-25T02:47:10;2.45;;;1.27;;
66163;SDS011;52962;51.088;3.096;2023-04-25T02:49:38;2.03;;;1.13;;
66163;SDS011;52962;51.088;3.096;2023-04-25T02:52:07;2.28;;;0.90;;
66163;SDS011;52962;51.088;3.096;2023-04-25T02:54:35;4.47;;;1.02;;
66163;SDS011;52962;51.088;3.096;2023-04-25T02:57:03;5.85;;;1.60;;
66163;SDS011;52962;51.088;3.096;2023-04-25T02:59:35;5.28;;;1.00;;
66163;SDS011;52962;51.088;3.096;2023-04-25T03:02:05;1.55;;;1.30;;
66163;SDS011;52962;51.088;3.096;2023-04-25T03:04:33;2.65;;;0.77;;
66163;SDS011;52962;51.088;3.096;2023-04-25T03:07:01;3.78;;;0.88;;
66163;SDS011;52962;51.088;3.096;2023-04-25T03:09:30;1.52;;;0.80;;
66163;SDS011;52962;51.088;3.096;2023-04-25T03:11:58;3.13;;;1.02;;
66163;SDS011;52962;51.088;3.096;2023-04-25T03:14:27;2.53;;;0.93;;
66163;SDS011;52962;51.088;3.096;2023-04-25T03:16:55;3.00;;;1.20;;
66163;SDS011;52962;51.088;3.096;2023-04-25T03:19:24;2.83;;;1.30;;
66163;SDS011;52962;51.088;3.096;2023-04-25T03:21:52;2.55;;;0.73;;
66163;SDS011;52962;51.088;3.096;2023-04-25T03:24:21;2.90;;;1.20;;
66163;SDS011;52962;51.088;3.096;2023-04-25T03:26:49;6.38;;;1.90;;
66163;SDS011;52962;51.088;3.096;2023-04-25T03:29:17;1.40;;;0.77;;
66163;SDS011;52962;51.088;3.096;2023-04-25T03:31:46;1.20;;;0.70;;
66163;SDS011;52962;51.088;3.096;2023-04-25T03:34:14;5.07;;;1.10;;
66163;SDS011;52962;51.088;3.096;2023-04-25T03:36:44;2.58;;;0.95;;
66163;SDS011;52962;51.088;3.096;2023-04-25T03:39:13;3.83;;;0.73;;
66163;SDS011;52962;51.088;3.096;2023-04-25T03:41:46;0.80;;;0.65;;
66163;SDS011;52962;51.088;3.096;2023-04-25T03:44:16;2.45;;;0.82;;
66163;SDS011;52962;51.088;3.096;2023-04-25T03:49:13;1.42;;;1.05;;
66163;SDS011;52962;51.088;3.096;2023-04-25T03:51:59;6.45;;;1.00;;
66163;SDS011;52962;51.088;3.096;2023-04-25T03:54:32;2.58;;;1.15;;
66163;SDS011;52962;51.088;3.096;2023-04-25T03:57:20;1.05;;;0.68;;
66163;SDS011;52962;51.088;3.096;2023-04-25T03:59:48;3.95;;;0.75;;
66163;SDS011;52962;51.088;3.096;2023-04-25T04:02:17;0.90;;;0.68;;
66163;SDS011;52962;51.088;3.096;2023-04-25T04:04:46;7.32;;;1.05;;
66163;SDS011;52962;51.088;3.096;2023-04-25T04:07:16;3.90;;;1.13;;
66163;SDS011;52962;51.088;3.096;2023-04-25T04:09:46;1.75;;;0.63;;
66163;SDS011;52962;51.088;3.096;2023-04-25T04:12:22;1.35;;;0.80;;
66163;SDS011;52962;51.088;3.096;2023-04-25T04:14:51;1.55;;;0.73;;
66163;SDS011;52962;51.088;3.096;2023-04-25T04:17:19;3.80;;;0.80;;
66163;SDS011;52962;51.088;3.096;2023-04-25T04:19:48;0.77;;;0.77;;
66163;SDS011;52962;51.088;3.096;2023-04-25T04:22:21;0.77;;;0.63;;
66163;SDS011;52962;51.088;3.096;2023-04-25T04:24:53;0.73;;;0.60;;
66163;SDS011;52962;51.088;3.096;2023-04-25T04:27:41;0.65;;;0.60;;
66163;SDS011;52962;51.088;3.096;2023-04-25T04:30:23;1.63;;;0.73;;
66163;SDS011;52962;51.088;3.096;2023-04-25T04:32:57;1.60;;;0.80;;
66163;SDS011;52962;51.088;3.096;2023-04-25T04:35:26;1.88;;;0.77;;
66163;SDS011;52962;51.088;3.096;2023-04-25T04:37:55;1.92;;;0.82;;
66163;SDS011;52962;51.088;3.096;2023-04-25T04:40:27;1.50;;;0.88;;
66163;SDS011;52962;51.088;3.096;2023-04-25T04:43:06;0.80;;;0.60;;
66163;SDS011;52962;51.088;3.096;2023-04-25T04:45:58;2.05;;;0.88;;
66163;SDS011;52962;51.088;3.096;2023-04-25T04:51:21;0.68;;;0.60;;
66163;SDS011;52962;51.088;3.096;2023-04-25T04:54:07;0.95;;;0.73;;
66163;SDS011;52962;51.088;3.096;2023-04-25T04:56:59;1.48;;;0.88;;
66163;SDS011;52962;51.088;3.096;2023-04-25T04:59:50;2.20;;;0.90;;
66163;SDS011;52962;51.088;3.096;2023-04-25T05:02:37;2.40;;;0.90;;
66163;SDS011;52962;51.088;3.096;2023-04-25T05:05:24;1.63;;;0.90;;
66163;SDS011;52962;51.088;3.096;2023-04-25T05:08:25;1.10;;;0.88;;
66163;SDS011;52962;51.088;3.096;2023-04-25T05:11:27;0.88;;;0.57;;
66163;SDS011;52962;51.088;3.096;2023-04-25T05:14:08;2.45;;;0.70;;
66163;SDS011;52962;51.088;3.096;2023-04-25T05:16:48;2.03;;;0.63;;
66163;SDS011;52962;51.088;3.096;2023-04-25T05:19:29;3.38;;;0.82;;
66163;SDS011;52962;51.088;3.096;2023-04-25T05:22:16;5.63;;;1.00;;
66163;SDS011;52962;51.088;3.096;2023-04-25T05:25:08;0.93;;;0.85;;
66163;SDS011;52962;51.088;3.096;2023-04-25T05:27:54;2.10;;;0.75;;
66163;SDS011;52962;51.088;3.096;2023-04-25T05:30:49;1.48;;;0.93;;
66163;SDS011;52962;51.088;3.096;2023-04-25T05:33:40;2.15;;;1.05;;
66163;SDS011;52962;51.088;3.096;2023-04-25T05:38:36;2.08;;;0.63;;
66163;SDS011;52962;51.088;3.096;2023-04-25T05:41:07;1.88;;;1.05;;
66163;SDS011;52962;51.088;3.096;2023-04-25T05:43:55;1.25;;;0.43;;
66163;SDS011;52962;51.088;3.096;2023-04-25T05:49:19;0.63;;;0.60;;
66163;SDS011;52962;51.088;3.096;2023-04-25T05:52:07;1.92;;;0.63;;
66163;SDS011;52962;51.088;3.096;2023-04-25T05:54:46;2.00;;;0.77;;
66163;SDS011;52962;51.088;3.096;2023-04-25T05:57:19;1.80;;;0.90;;
66163;SDS011;52962;51.088;3.096;2023-04-25T05:59:50;3.75;;;0.75;;
66163;SDS011;52962;51.088;3.096;2023-04-25T06:02:19;3.97;;;0.88;;
66163;SDS011;52962;51.088;3.096;2023-04-25T06:04:49;0.77;;;0.50;;
66163;SDS011;52962;51.088;3.096;2023-04-25T06:07:18;2.10;;;0.60;;
66163;SDS011;52962;51.088;3.096;2023-04-25T06:09:47;0.90;;;0.55;;
66163;SDS011;52962;51.088;3.096;2023-04-25T06:12:15;4.80;;;0.90;;
66163;SDS011;52962;51.088;3.096;2023-04-25T06:14:45;0.90;;;0.55;;
66163;SDS011;52962;51.088;3.096;2023-04-25T06:17:15;2.40;;;0.90;;
66163;SDS011;52962;51.088;3.096;2023-04-25T06:19:44;2.35;;;0.65;;
66163;SDS011;52962;51.088;3.096;2023-04-25T06:24:40;2.38;;;0.90;;
66163;SDS011;52962;51.088;3.096;2023-04-25T06:27:08;1.38;;;0.45;;
66163;SDS011;52962;51.088;3.096;2023-04-25T06:29:38;0.75;;;0.50;;
66163;SDS011;52962;51.088;3.096;2023-04-25T06:32:07;2.25;;;0.75;;
66163;SDS011;52962;51.088;3.096;2023-04-25T06:34:36;2.75;;;0.85;;
66163;SDS011;52962;51.088;3.096;2023-04-25T06:37:05;2.80;;;0.55;;
66163;SDS011;52962;51.088;3.096;2023-04-25T06:39:34;1.67;;;0.70;;
66163;SDS011;52962;51.088;3.096;2023-04-25T06:42:06;2.15;;;0.60;;
66163;SDS011;52962;51.088;3.096;2023-04-25T06:44:48;2.13;;;0.75;;
66163;SDS011;52962;51.088;3.096;2023-04-25T06:47:18;2.72;;;0.77;;
66163;SDS011;52962;51.088;3.096;2023-04-25T06:49:49;1.02;;;0.50;;
66163;SDS011;52962;51.088;3.096;2023-04-25T06:52:18;1.10;;;0.52;;
66163;SDS011;52962;51.088;3.096;2023-04-25T06:54:47;2.97;;;0.60;;
66163;SDS011;52962;51.088;3.096;2023-04-25T06:57:32;0.70;;;0.47;;
66163;SDS011;52962;51.088;3.096;2023-04-25T07:00:20;4.60;;;0.93;;
66163;SDS011;52962;51.088;3.096;2023-04-25T07:05:18;0.80;;;0.63;;
66163;SDS011;52962;51.088;3.096;2023-04-25T07:07:47;0.50;;;0.32;;
66163;SDS011;52962;51.088;3.096;2023-04-25T07:10:16;1.67;;;0.63;;
66163;SDS011;52962;51.088;3.096;2023-04-25T07:12:44;0.50;;;0.43;;
66163;SDS011;52962;51.088;3.096;2023-04-25T07:15:12;2.95;;;0.50;;
66163;SDS011;52962;51.088;3.096;2023-04-25T07:17:44;2.20;;;0.80;;
66163;SDS011;52962;51.088;3.096;2023-04-25T07:20:12;1.83;;;0.88;;
66163;SDS011;52962;51.088;3.096;2023-04-25T07:22:42;3.33;;;1.08;;
66163;SDS011;52962;51.088;3.096;2023-04-25T07:25:11;1.73;;;0.63;;
66163;SDS011;52962;51.088;3.096;2023-04-25T07:27:40;2.22;;;0.52;;
66163;SDS011;52962;51.088;3.096;2023-04-25T07:30:15;3.17;;;0.80;;
66163;SDS011;52962;51.088;3.096;2023-04-25T07:32:43;3.15;;;0.85;;
66163;SDS011;52962;51.088;3.096;2023-04-25T07:35:11;3.85;;;0.82;;
66163;SDS011;52962;51.088;3.096;2023-04-25T07:37:40;2.20;;;0.52;;
66163;SDS011;52962;51.088;3.096;2023-04-25T07:40:16;2.80;;;0.60;;
66163;SDS011;52962;51.088;3.096;2023-04-25T07:42:48;2.08;;;0.57;;
66163;SDS011;52962;51.088;3.096;2023-04-25T07:45:23;1.60;;;0.70;;
66163;SDS011;52962;51.088;3.096;2023-04-25T07:47:52;1.73;;;0.90;;
66163;SDS011;52962;51.088;3.096;2023-04-25T07:52:49;2.25;;;0.50;;
66163;SDS011;52962;51.088;3.096;2023-04-25T07:55:24;2.35;;;0.63;;
66163;SDS011;52962;51.088;3.096;2023-04-25T07:58:08;2.53;;;0.60;;
66163;SDS011;52962;51.088;3.096;2023-04-25T08:00:39;0.50;;;0.50;;
66163;SDS011;52962;51.088;3.096;2023-04-25T08:03:25;1.67;;;0.63;;
66163;SDS011;52962;51.088;3.096;2023-04-25T08:05:54;1.98;;;0.90;;
66163;SDS011;52962;51.088;3.096;2023-04-25T08:08:25;4.05;;;0.75;;
66163;SDS011;52962;51.088;3.096;2023-04-25T08:10:55;2.40;;;0.65;;
66163;SDS011;52962;51.088;3.096;2023-04-25T08:13:24;1.48;;;0.45;;
66163;SDS011;52962;51.088;3.096;2023-04-25T08:15:52;0.75;;;0.60;;
66163;SDS011;52962;51.088;3.096;2023-04-25T08:20:49;1.58;;;0.32;;
66163;SDS011;52962;51.088;3.096;2023-04-25T08:23:19;0.82;;;0.55;;
66163;SDS011;52962;51.088;3.096;2023-04-25T08:26:03;1.20;;;0.73;;
66163;SDS011;52962;51.088;3.096;2023-04-25T08:28:35;4.57;;;0.73;;
66163;SDS011;52962;51.088;3.096;2023-04-25T08:31:04;1.90;;;0.60;;
66163;SDS011;52962;51.088;3.096;2023-04-25T08:33:42;0.90;;;0.50;;
66163;SDS011;52962;51.088;3.096;2023-04-25T08:36:28;1.10;;;0.43;;
66163;SDS011;52962;51.088;3.096;2023-04-25T08:39:16;0.85;;;0.43;;
66163;SDS011;52962;51.088;3.096;2023-04-25T08:42:05;1.60;;;0.63;;
66163;SDS011;52962;51.088;3.096;2023-04-25T08:44:35;0.73;;;0.25;;
66163;SDS011;52962;51.088;3.096;2023-04-25T08:47:05;0.90;;;0.50;;
66163;SDS011;52962;51.088;3.096;2023-04-25T08:49:41;0.70;;;0.47;;
66163;SDS011;52962;51.088;3.096;2023-04-25T08:52:15;0.88;;;0.52;;
66163;SDS011;52962;51.088;3.096;2023-04-25T08:54:50;1.63;;;0.63;;
66163;SDS011;52962;51.088;3.096;2023-04-25T08:57:22;2.55;;;0.52;;
66163;SDS011;52962;51.088;3.096;2023-04-25T08:59:51;1.52;;;0.55;;
66163;SDS011;52962;51.088;3.096;2023-04-25T09:02:21;0.65;;;0.40;;
66163;SDS011;52962;51.088;3.096;2023-04-25T09:04:52;2.28;;;0.60;;
66163;SDS011;52962;51.088;3.096;2023-04-25T09:07:23;1.17;;;0.55;;
66163;SDS011;52962;51.088;3.096;2023-04-25T09:09:53;0.47;;;0.47;;
66163;SDS011;52962;51.088;3.096;2023-04-25T09:12:22;1.38;;;0.60;;
66163;SDS011;52962;51.088;3.096;2023-04-25T09:15:01;3.50;;;0.50;;
66163;SDS011;52962;51.088;3.096;2023-04-25T09:17:54;1.70;;;0.70;;
66163;SDS011;52962;51.088;3.096;2023-04-25T09:20:28;1.23;;;0.45;;
66163;SDS011;52962;51.088;3.096;2023-04-25T09:23:01;3.33;;;0.73;;
66163;SDS011;52962;51.088;3.096;2023-04-25T09:25:33;2.72;;;0.50;;
66163;SDS011;52962;51.088;3.096;2023-04-25T09:28:08;0.90;;;0.70;;
66163;SDS011;52962;51.088;3.096;2023-04-25T09:30:37;3.13;;;0.52;;
66163;SDS011;52962;51.088;3.096;2023-04-25T09:33:18;3.58;;;0.60;;
66163;SDS011;52962;51.088;3.096;2023-04-25T09:35:49;1.60;;;0.63;;
66163;SDS011;52962;51.088;3.096;2023-04-25T09:38:40;1.48;;;0.65;;
66163;SDS011;52962;51.088;3.096;2023-04-25T09:41:15;4.80;;;0.73;;
66163;SDS011;52962;51.088;3.096;2023-04-25T09:43:56;1.55;;;0.57;;
66163;SDS011;52962;51.088;3.096;2023-04-25T09:46:32;0.82;;;0.82;;
66163;SDS011;52962;51.088;3.096;2023-04-25T09:49:06;0.73;;;0.57;;
66163;SDS011;52962;51.088;3.096;2023-04-25T09:51:53;0.55;;;0.45;;
66163;SDS011;52962;51.088;3.096;2023-04-25T09:54:24;3.10;;;0.68;;
66163;SDS011;52962;51.088;3.096;2023-04-25T09:57:05;1.50;;;0.70;;
66163;SDS011;52962;51.088;3.096;2023-04-25T09:59:44;1.45;;;0.32;;
66163;SDS011;52962;51.088;3.096;2023-04-25T10:02:15;1.95;;;0.75;;
66163;SDS011;52962;51.088;3.096;2023-04-25T10:04:48;1.52;;;0.70;;
66163;SDS011;52962;51.088;3.096;2023-04-25T10:07:34;1.08;;;0.52;;
66163;SDS011;52962;51.088;3.096;2023-04-25T10:10:09;3.05;;;0.75;;
66163;SDS011;52962;51.088;3.096;2023-04-25T10:12:40;0.45;;;0.30;;
66163;SDS011;52962;51.088;3.096;2023-04-25T10:15:12;0.98;;;0.35;;
66163;SDS011;52962;51.088;3.096;2023-04-25T10:17:42;1.48;;;0.65;;
66163;SDS011;52962;51.088;3.096;2023-04-25T10:20:11;1.63;;;0.50;;
66163;SDS011;52962;51.088;3.096;2023-04-25T10:22:41;0.20;;;0.20;;
66163;SDS011;52962;51.088;3.096;2023-04-25T10:25:11;0.45;;;0.30;;
66163;SDS011;52962;51.088;3.096;2023-04-25T10:27:41;0.85;;;0.40;;
66163;SDS011;52962;51.088;3.096;2023-04-25T10:30:10;0.40;;;0.40;;
66163;SDS011;52962;51.088;3.096;2023-04-25T10:32:42;1.73;;;0.30;;
66163;SDS011;52962;51.088;3.096;2023-04-25T10:35:12;0.93;;;0.70;;
66163;SDS011;52962;51.088;3.096;2023-04-25T10:37:59;0.73;;;0.32;;
66163;SDS011;52962;51.088;3.096;2023-04-25T10:40:30;0.95;;;0.38;;
66163;SDS011;52962;51.088;3.096;2023-04-25T10:46:19;2.22;;;0.40;;
66163;SDS011;52962;51.088;3.096;2023-04-25T10:48:52;1.63;;;0.52;;
66163;SDS011;52962;51.088;3.096;2023-04-25T10:51:22;0.85;;;0.50;;
66163;SDS011;52962;51.088;3.096;2023-04-25T10:53:58;4.47;;;0.68;;
66163;SDS011;52962;51.088;3.096;2023-04-25T10:56:28;0.98;;;0.40;;
66163;SDS011;52962;51.088;3.096;2023-04-25T10:59:07;1.40;;;0.52;;
66163;SDS011;52962;51.088;3.096;2023-04-25T11:01:39;0.47;;;0.32;;
66163;SDS011;52962;51.088;3.096;2023-04-25T11:04:22;2.08;;;0.60;;
66163;SDS011;52962;51.088;3.096;2023-04-25T11:06:56;1.25;;;0.60;;
66163;SDS011;52962;51.088;3.096;2023-04-25T11:09:33;0.65;;;0.60;;
66163;SDS011;52962;51.088;3.096;2023-04-25T11:12:01;0.20;;;0.20;;
66163;SDS011;52962;51.088;3.096;2023-04-25T11:16:59;0.57;;;0.55;;
66163;SDS011;52962;51.088;3.096;2023-04-25T11:19:29;0.32;;;0.32;;
66163;SDS011;52962;51.088;3.096;2023-04-25T11:21:57;0.55;;;0.35;;
66163;SDS011;52962;51.088;3.096;2023-04-25T11:24:26;1.50;;;0.50;;
66163;SDS011;52962;51.088;3.096;2023-04-25T11:26:55;0.88;;;0.57;;
66163;SDS011;52962;51.088;3.096;2023-04-25T11:29:26;1.00;;;0.70;;
66163;SDS011;52962;51.088;3.096;2023-04-25T11:31:54;3.47;;;0.70;;
66163;SDS011;52962;51.088;3.096;2023-04-25T11:34:26;0.50;;;0.45;;
66163;SDS011;52962;51.088;3.096;2023-04-25T11:36:57;1.27;;;0.75;;
66163;SDS011;52962;51.088;3.096;2023-04-25T11:39:26;3.30;;;0.68;;
66163;SDS011;52962;51.088;3.096;2023-04-25T11:41:54;0.88;;;0.32;;
66163;SDS011;52962;51.088;3.096;2023-04-25T11:44:23;1.30;;;0.63;;
66163;SDS011;52962;51.088;3.096;2023-04-25T11:46:51;0.40;;;0.40;;
66163;SDS011;52962;51.088;3.096;2023-04-25T11:49:19;0.82;;;0.40;;
66163;SDS011;52962;51.088;3.096;2023-04-25T11:51:50;0.35;;;0.35;;
66163;SDS011;52962;51.088;3.096;2023-04-25T11:54:18;3.72;;;0.93;;
66163;SDS011;52962;51.088;3.096;2023-04-25T11:56:46;5.10;;;0.75;;
66163;SDS011;52962;51.088;3.096;2023-04-25T11:59:14;1.08;;;0.68;;
66163;SDS011;52962;51.088;3.096;2023-04-25T12:01:47;2.75;;;0.75;;
66163;SDS011;52962;51.088;3.096;2023-04-25T12:04:17;1.20;;;0.45;;
66163;SDS011;52962;51.088;3.096;2023-04-25T12:06:47;0.65;;;0.40;;
66163;SDS011;52962;51.088;3.096;2023-04-25T12:09:19;0.30;;;0.28;;
66163;SDS011;52962;51.088;3.096;2023-04-25T12:11:52;2.78;;;0.43;;
66163;SDS011;52962;51.088;3.096;2023-04-25T12:14:22;0.30;;;0.30;;
66163;SDS011;52962;51.088;3.096;2023-04-25T12:16:54;3.00;;;0.60;;
66163;SDS011;52962;51.088;3.096;2023-04-25T12:19:25;0.68;;;0.50;;
66163;SDS011;52962;51.088;3.096;2023-04-25T12:21:55;1.65;;;0.82;;
66163;SDS011;52962;51.088;3.096;2023-04-25T12:24:25;2.20;;;0.63;;
66163;SDS011;52962;51.088;3.096;2023-04-25T12:26:58;0.40;;;0.38;;
66163;SDS011;52962;51.088;3.096;2023-04-25T12:29:28;0.75;;;0.60;;
66163;SDS011;52962;51.088;3.096;2023-04-25T12:32:13;3.72;;;0.68;;
66163;SDS011;52962;51.088;3.096;2023-04-25T12:34:42;1.98;;;0.68;;
66163;SDS011;52962;51.088;3.096;2023-04-25T12:37:11;3.63;;;1.00;;
66163;SDS011;52962;51.088;3.096;2023-04-25T12:39:40;1.10;;;0.60;;
66163;SDS011;52962;51.088;3.096;2023-04-25T12:44:38;0.98;;;0.43;;
66163;SDS011;52962;51.088;3.096;2023-04-25T12:49:34;4.53;;;0.75;;
66163;SDS011;52962;51.088;3.096;2023-04-25T12:52:02;0.43;;;0.43;;
66163;SDS011;52962;51.088;3.096;2023-04-25T12:54:32;0.73;;;0.60;;
66163;SDS011;52962;51.088;3.096;2023-04-25T12:57:01;0.52;;;0.43;;
66163;SDS011;52962;51.088;3.096;2023-04-25T12:59:30;0.73;;;0.40;;
66163;SDS011;52962;51.088;3.096;2023-04-25T13:01:58;3.28;;;0.55;;
66163;SDS011;52962;51.088;3.096;2023-04-25T13:04:27;1.05;;;0.55;;
66163;SDS011;52962;51.088;3.096;2023-04-25T13:06:55;3.47;;;0.95;;
66163;SDS011;52962;51.088;3.096;2023-04-25T13:11:53;0.77;;;0.30;;
66163;SDS011;52962;51.088;3.096;2023-04-25T13:14:24;1.50;;;1.05;;
66163;SDS011;52962;51.088;3.096;2023-04-25T13:16:52;3.85;;;1.42;;
66163;SDS011;52962;51.088;3.096;2023-04-25T13:19:21;3.17;;;0.70;;
66163;SDS011;52962;51.088;3.096;2023-04-25T13:24:17;1.13;;;0.73;;
66163;SDS011;52962;51.088;3.096;2023-04-25T13:29:15;1.23;;;0.60;;
66163;SDS011;52962;51.088;3.096;2023-04-25T13:31:43;2.25;;;0.70;;
66163;SDS011;52962;51.088;3.096;2023-04-25T13:36:39;0.98;;;0.30;;
66163;SDS011;52962;51.088;3.096;2023-04-25T13:41:35;2.20;;;0.70;;
66163;SDS011;52962;51.088;3.096;2023-04-25T13:44:04;3.00;;;0.55;;
66163;SDS011;52962;51.088;3.096;2023-04-25T13:46:33;2.75;;;0.63;;
66163;SDS011;52962;51.088;3.096;2023-04-25T13:49:13;3.72;;;0.70;;
66163;SDS011;52962;51.088;3.096;2023-04-25T13:51:42;1.23;;;0.45;;
66163;SDS011;52962;51.088;3.096;2023-04-25T13:54:10;0.45;;;0.30;;
66163;SDS011;52962;51.088;3.096;2023-04-25T13:59:08;1.27;;;0.55;;
66163;SDS011;52962;51.088;3.096;2023-04-25T14:01:38;3.65;;;1.42;;
66163;SDS011;52962;51.088;3.096;2023-04-25T14:04:06;1.63;;;0.90;;
66163;SDS011;52962;51.088;3.096;2023-04-25T14:06:34;2.05;;;0.57;;
66163;SDS011;52962;51.088;3.096;2023-04-25T14:09:03;2.22;;;0.55;;
66163;SDS011;52962;51.088;3.096;2023-04-25T14:11:33;1.35;;;0.63;;
66163;SDS011;52962;51.088;3.096;2023-04-25T14:14:01;2.67;;;0.68;;
66163;SDS011;52962;51.088;3.096;2023-04-25T14:16:30;4.47;;;0.68;;
66163;SDS011;52962;51.088;3.096;2023-04-25T14:19:00;0.50;;;0.50;;
66163;SDS011;52962;51.088;3.096;2023-04-25T14:21:29;0.55;;;0.45;;
66163;SDS011;52962;51.088;3.096;2023-04-25T14:23:59;0.93;;;0.45;;
66163;SDS011;52962;51.088;3.096;2023-04-25T14:26:27;3.72;;;0.73;;
66163;SDS011;52962;51.088;3.096;2023-04-25T14:28:55;1.20;;;0.45;;
66163;SDS011;52962;51.088;3.096;2023-04-25T14:31:23;2.03;;;0.57;;
66163;SDS011;52962;51.088;3.096;2023-04-25T14:36:23;1.38;;;0.55;;
66163;SDS011;52962;51.088;3.096;2023-04-25T14:38:52;4.60;;;0.73;;
66163;SDS011;52962;51.088;3.096;2023-04-25T14:41:20;1.38;;;0.70;;
66163;SDS011;52962;51.088;3.096;2023-04-25T14:43:49;2.78;;;0.52;;
66163;SDS011;52962;51.088;3.096;2023-04-25T14:46:18;2.63;;;0.57;;
66163;SDS011;52962;51.088;3.096;2023-04-25T14:48:47;2.45;;;0.60;;
66163;SDS011;52962;51.088;3.096;2023-04-25T14:51:15;2.30;;;0.55;;
66163;SDS011;52962;51.088;3.096;2023-04-25T14:53:45;0.30;;;0.30;;
66163;SDS011;52962;51.088;3.096;2023-04-25T14:56:13;0.68;;;0.40;;
66163;SDS011;52962;51.088;3.096;2023-04-25T14:58:41;1.52;;;0.73;;
66163;SDS011;52962;51.088;3.096;2023-04-25T15:01:09;1.60;;;0.52;;
66163;SDS011;52962;51.088;3.096;2023-04-25T15:03:38;1.35;;;0.50;;
66163;SDS011;52962;51.088;3.096;2023-04-25T15:06:06;2.10;;;0.82;;
66163;SDS011;52962;51.088;3.096;2023-04-25T15:08:35;1.85;;;0.50;;
66163;SDS011;52962;51.088;3.096;2023-04-25T15:11:04;1.83;;;0.35;;
66163;SDS011;52962;51.088;3.096;2023-04-25T15:13:33;1.23;;;0.63;;
66163;SDS011;52962;51.088;3.096;2023-04-25T15:16:02;0.95;;;0.57;;
66163;SDS011;52962;51.088;3.096;2023-04-25T15:18:30;1.08;;;0.63;;
66163;SDS011;52962;51.088;3.096;2023-04-25T15:20:58;2.95;;;1.00;;
66163;SDS011;52962;51.088;3.096;2023-04-25T15:23:26;3.03;;;0.50;;
66163;SDS011;52962;51.088;3.096;2023-04-25T15:25:55;1.70;;;0.50;;
66163;SDS011;52962;51.088;3.096;2023-04-25T15:28:25;0.60;;;0.60;;
66163;SDS011;52962;51.088;3.096;2023-04-25T15:30:53;2.03;;;0.40;;
66163;SDS011;52962;51.088;3.096;2023-04-25T15:33:21;2.92;;;0.63;;
66163;SDS011;52962;51.088;3.096;2023-04-25T15:35:49;2.38;;;0.70;;
66163;SDS011;52962;51.088;3.096;2023-04-25T15:38:18;0.82;;;0.50;;
66163;SDS011;52962;51.088;3.096;2023-04-25T15:43:14;1.50;;;0.68;;
66163;SDS011;52962;51.088;3.096;2023-04-25T15:45:44;4.25;;;0.60;;
66163;SDS011;52962;51.088;3.096;2023-04-25T15:48:12;1.58;;;0.30;;
66163;SDS011;52962;51.088;3.096;2023-04-25T15:50:40;1.60;;;0.60;;
66163;SDS011;52962;51.088;3.096;2023-04-25T15:53:08;0.65;;;0.65;;
66163;SDS011;52962;51.088;3.096;2023-04-25T15:55:37;1.52;;;0.52;;
66163;SDS011;52962;51.088;3.096;2023-04-25T15:58:05;1.45;;;0.68;;
66163;SDS011;52962;51.088;3.096;2023-04-25T16:00:36;1.40;;;0.70;;
66163;SDS011;52962;51.088;3.096;2023-04-25T16:03:07;0.50;;;0.50;;
66163;SDS011;52962;51.088;3.096;2023-04-25T16:05:36;0.88;;;0.43;;
66163;SDS011;52962;51.088;3.096;2023-04-25T16:08:05;2.90;;;0.60;;
66163;SDS011;52962;51.088;3.096;2023-04-25T16:10:33;0.98;;;0.75;;
66163;SDS011;52962;51.088;3.096;2023-04-25T16:13:02;3.22;;;0.70;;
66163;SDS011;52962;51.088;3.096;2023-04-25T16:15:30;1.75;;;0.60;;
66163;SDS011;52962;51.088;3.096;2023-04-25T16:18:01;1.15;;;0.63;;
66163;SDS011;52962;51.088;3.096;2023-04-25T16:20:30;2.20;;;0.65;;